Time;durP1;ratioP1;P1;durP2;ratioP2;P2;SDS_P1;SDS_P2;PMS_P1;PMS_P2;Temp;Humidity;BMP_temperature;BMP_pressure;BME280_temperature;BME280_humidity;BME280_pressure;Samples;Min_cycle;Max_cycle;Signal;HPM_P1;HPM_P2
2021/10/07 00:00:25;;;;;;;13.20;11.90;;;;;;;30.14;77.67;100362.63;5093153;27;70510;-32
2021/10/07 00:02:56;;;;;;;19.20;14.65;;;;;;;30.15;78.46;100369.69;5093948;27;64984;-32
2021/10/07 00:05:27;;;;;;;15.18;13.07;;;;;;;30.10;77.88;100369.56;5092669;27;69293;-31
2021/10/07 00:07:58;;;;;;;15.50;13.52;;;;;;;30.12;78.05;100372.84;5089113;27;66382;-32
2021/10/07 00:10:30;;;;;;;;;;;;;;;29.81;79.04;100380.09;5073818;27;70485;-32
2021/10/07 00:13:01;;;;;;;15.25;13.88;;;;;;;30.07;78.30;100372.72;5088178;27;66354;-33
2021/10/07 00:15:32;;;;;;;14.15;13.05;;;;;;;30.13;78.14;100379.91;5092767;27;70264;-32
2021/10/07 00:18:04;;;;;;;15.63;14.15;;;;;;;30.22;77.96;100394.81;5090148;27;66223;-32
2021/10/07 00:20:43;;;;;;;14.82;13.38;;;;;;;30.24;77.64;100394.59;5091475;27;69287;-32
2021/10/07 00:23:24;;;;;;;17.20;15.07;;;;;;;30.24;77.83;100395.41;5090541;27;66065;-33
2021/10/07 00:26:27;;;;;;;17.00;15.48;;;;;;;30.05;77.56;100364.00;5088048;27;69637;-32
2021/10/07 00:32:22;;;;;;;29.70;17.87;;;;;;;29.89;77.33;100332.97;5091692;27;70256;-32
2021/10/07 00:35:39;;;;;;;18.42;16.13;;;;;;;30.26;77.01;100389.78;5071621;27;66482;-32
2021/10/07 00:41:44;;;;;;;16.92;15.30;;;;;;;29.94;76.58;100345.81;5090207;27;65733;-32
2021/10/07 00:44:46;;;;;;;15.00;13.50;;;;;;;30.24;77.21;100392.69;5089295;27;69960;-33
2021/10/07 00:47:31;;;;;;;16.73;12.35;;;;;;;30.24;76.88;100400.00;5082652;27;66349;-33
2021/10/07 00:50:19;;;;;;;13.55;12.27;;;;;;;30.19;76.36;100408.75;5079017;27;69540;-33
2021/10/07 00:53:33;;;;;;;14.98;12.45;;;;;;;30.15;76.33;100406.75;5088168;27;66032;-33
2021/10/07 00:56:30;;;;;;;13.85;12.48;;;;;;;30.09;76.21;100407.63;5091641;27;69707;-33
2021/10/07 00:59:33;;;;;;;11.90;10.48;;;;;;;30.21;76.59;100433.72;5090345;27;67058;-34
2021/10/07 01:02:38;;;;;;;16.48;12.30;;;;;;;30.01;76.45;100406.09;5091105;27;69989;-33
2021/10/07 01:05:42;;;;;;;14.52;11.80;;;;;;;29.93;76.39;100398.25;5081516;27;65349;-33
2021/10/07 01:09:02;;;;;;;12.45;11.30;;;;;;;30.19;76.48;100430.41;5081079;27;70149;-34
2021/10/07 01:12:28;;;;;;;12.65;11.43;;;;;;;30.14;76.29;100432.94;5056176;27;65800;-33
2021/10/07 01:15:46;;;;;;;13.00;11.75;;;;;;;30.19;76.35;100443.91;5068278;28;69399;-33
2021/10/07 01:19:44;;;;;;;12.75;11.65;;;;;;;30.07;75.78;100443.03;5065702;28;66101;-33
2021/10/07 01:22:54;;;;;;;12.77;10.48;;;;;;;30.15;76.55;100434.63;5059018;28;70048;-33
2021/10/07 01:26:26;;;;;;;;;;;;;;;29.92;76.52;100450.69;5067594;28;66114;-33
2021/10/07 01:29:59;;;;;;;10.70;9.95;;;;;;;30.22;75.84;100446.19;5050203;28;70516;-33
2021/10/07 01:32:57;;;;;;;10.68;9.80;;;;;;;30.28;76.22;100445.31;5070926;27;66669;-33
2021/10/07 01:35:54;;;;;;;9.23;8.52;;;;;;;29.97;75.13;100407.56;5066120;28;70418;-33
2021/10/07 01:39:13;;;;;;;9.63;8.93;;;;;;;30.33;75.37;100454.63;5069331;28;65722;-32
2021/10/07 01:42:15;;;;;;;8.15;7.50;;;;;;;30.33;75.91;100457.31;5061775;28;69425;-33
2021/10/07 01:45:15;;;;;;;9.90;8.98;;;;;;;30.34;75.22;100458.97;5068771;28;66784;-32
2021/10/07 01:48:38;;;;;;;8.05;7.53;;;;;;;30.38;75.63;100462.91;5074414;27;70044;-32
2021/10/07 01:51:39;;;;;;;12.35;8.30;;;;;;;30.36;75.21;100462.28;5074552;27;65646;-32
2021/10/07 01:54:35;;;;;;;11.32;10.27;;;;;;;30.11;75.26;100427.19;5057982;27;69945;-33
2021/10/07 01:57:46;;;;;;;10.00;9.20;;;;;;;30.21;75.73;100433.72;5087564;27;65579;-37
2021/10/07 02:00:32;;;;;;;9.65;8.77;;;;;;;30.17;75.45;100432.53;5075562;27;69657;-33
2021/10/07 02:03:46;;;;;;;11.57;10.55;;;;;;;30.44;75.51;100484.44;5075606;27;65664;-33
2021/10/07 02:07:02;;;;;;;9.80;9.02;;;;;;;30.36;75.25;100483.94;5083448;27;69806;-34
2021/10/07 02:10:32;;;;;;;12.15;9.05;;;;;;;30.39;74.65;100486.19;5089586;27;67276;-33
2021/10/07 02:13:30;;;;;;;8.82;8.23;;;;;;;30.44;75.19;100476.34;5088592;27;69855;-33
2021/10/07 02:16:56;;;;;;;9.43;8.27;;;;;;;30.28;74.38;100460.69;5087677;27;66601;-34
2021/10/07 02:20:00;;;;;;;9.13;7.18;;;;;;;30.60;75.11;100484.91;5074387;27;69491;-34
2021/10/07 02:23:14;;;;;;;8.85;7.45;;;;;;;30.60;74.83;100493.03;5081623;27;66796;-34
2021/10/07 02:25:58;;;;;;;7.00;6.50;;;;;;;30.65;74.37;100499.41;5070769;27;69824;-33
2021/10/07 02:29:05;;;;;;;8.00;7.20;;;;;;;30.60;74.74;100518.22;5071981;27;65068;-34
2021/10/07 02:32:11;;;;;;;5.70;5.30;;;;;;;30.47;72.75;100510.25;5083788;27;70230;-34
2021/10/07 02:34:57;;;;;;;9.07;5.00;;;;;;;30.45;72.89;100518.59;5063053;27;65510;-35
2021/10/07 02:38:04;;;;;;;4.82;4.53;;;;;;;30.17;71.81;100497.44;5071961;27;70393;-34
2021/10/07 02:40:51;;;;;;;5.00;4.55;;;;;;;30.16;73.35;100517.41;5087348;27;66229;-34
2021/10/07 02:43:51;;;;;;;13.43;4.43;;;;;;;30.14;72.46;100535.75;5087683;27;69386;-34
2021/10/07 02:47:37;;;;;;;9.23;4.43;;;;;;;30.14;73.62;100530.34;5081526;27;65714;-34
2021/10/07 02:50:38;;;;;;;8.02;4.80;;;;;;;30.22;73.09;100521.97;5060140;27;71260;-34
2021/10/07 02:53:35;;;;;;;12.43;4.28;;;;;;;30.32;73.29;100526.03;5079814;27;65036;-34
2021/10/07 02:56:17;;;;;;;7.78;4.75;;;;;;;30.33;73.66;100520.38;5081461;27;69935;-34
2021/10/07 02:59:07;;;;;;;6.20;4.05;;;;;;;30.44;73.40;100535.06;5089114;27;65947;-35
2021/10/07 03:02:03;;;;;;;11.30;4.40;;;;;;;30.47;73.61;100529.19;5072866;27;70449;-34
2021/10/07 03:04:59;;;;;;;5.25;4.75;;;;;;;30.55;73.24;100537.00;5096088;27;66520;-34
2021/10/07 03:07:44;;;;;;;5.63;4.80;;;;;;;30.57;73.69;100529.50;5088711;27;70338;-34
2021/10/07 03:10:38;;;;;;;5.00;4.70;;;;;;;30.61;73.68;100525.25;5069419;27;65668;-34
2021/10/07 03:13:30;;;;;;;4.53;4.22;;;;;;;30.66;73.99;100511.88;5085070;27;70143;-34
2021/10/07 03:16:17;;;;;;;5.70;5.15;;;;;;;30.69;73.75;100505.19;5105149;27;66798;-34
2021/10/07 03:19:10;;;;;;;5.20;4.82;;;;;;;30.72;73.89;100488.47;5095230;27;70010;-34
2021/10/07 03:22:21;;;;;;;5.50;5.10;;;;;;;30.76;73.81;100486.13;5084869;27;66301;-34
2021/10/07 03:25:21;;;;;;;5.78;5.38;;;;;;;30.19;73.85;100376.28;5069629;27;70420;-34
2021/10/07 03:28:03;;;;;;;7.45;5.00;;;;;;;30.82;74.27;100471.72;5063079;27;67885;-34
2021/10/07 03:31:06;;;;;;;9.90;5.90;;;;;;;30.82;73.77;100467.13;5091067;27;69593;-34
2021/10/07 03:33:57;;;;;;;6.43;5.93;;;;;;;30.69;72.12;100470.81;5087187;27;65402;-35
2021/10/07 03:36:54;;;;;;;8.27;5.68;;;;;;;30.76;72.42;100464.47;5087690;27;69896;-36
2021/10/07 03:39:38;;;;;;;5.88;5.43;;;;;;;30.73;72.51;100457.66;5095846;27;66485;-34
2021/10/07 03:42:15;;;;;;;7.18;5.03;;;;;;;30.75;72.08;100454.69;5090578;27;70203;-34
2021/10/07 03:44:48;;;;;;;4.47;4.28;;;;;;;30.79;72.25;100445.09;5070634;27;65458;-34
2021/10/07 03:47:32;;;;;;;7.30;5.00;;;;;;;30.69;72.28;100419.38;5061960;27;72414;-34
2021/10/07 03:50:10;;;;;;;;;;;;;;;30.54;72.05;100432.50;5091505;27;66068;-34
2021/10/07 03:52:50;;;;;;;4.82;4.53;;;;;;;30.80;71.02;100435.91;5075699;27;69864;-34
2021/10/07 03:55:34;;;;;;;5.30;4.90;;;;;;;30.81;71.75;100432.16;5092668;27;66271;-35
2021/10/07 03:58:11;;;;;;;5.57;5.28;;;;;;;30.83;71.55;100424.63;5093717;27;70039;-35
2021/10/07 04:00:44;;;;;;;5.45;5.07;;;;;;;30.87;71.33;100425.81;5085203;27;66170;-40
2021/10/07 04:03:20;;;;;;;5.57;5.22;;;;;;;30.89;71.50;100418.28;5090477;27;71283;-35
2021/10/07 04:06:00;;;;;;;6.70;6.28;;;;;;;30.90;71.46;100414.53;5092389;27;65352;-35
2021/10/07 04:08:38;;;;;;;6.38;5.72;;;;;;;30.73;71.61;100379.13;5087661;27;70026;-34
2021/10/07 04:11:10;;;;;;;6.20;5.65;;;;;;;30.94;71.29;100407.59;5083775;27;65949;-34
2021/10/07 04:13:43;;;;;;;6.30;5.90;;;;;;;30.95;71.98;100392.97;5073827;27;69020;-34
2021/10/07 04:16:16;;;;;;;8.38;7.68;;;;;;;30.96;71.53;100393.81;5088840;27;66526;-34
2021/10/07 04:18:48;;;;;;;8.35;7.60;;;;;;;30.94;71.05;100392.16;5092586;27;70590;-34
2021/10/07 04:21:21;;;;;;;9.07;8.25;;;;;;;30.94;70.63;100385.91;5088356;27;65398;-34
2021/10/07 04:23:54;;;;;;;8.88;8.20;;;;;;;30.94;70.26;100380.50;5087731;27;70183;-35
2021/10/07 04:26:26;;;;;;;8.32;7.72;;;;;;;31.02;70.55;100384.75;5095387;27;65638;-35
2021/10/07 04:29:00;;;;;;;6.90;6.50;;;;;;;30.99;70.17;100377.09;5084391;27;70294;-34
2021/10/07 04:31:34;;;;;;;6.05;5.70;;;;;;;30.98;69.92;100370.88;5072548;27;66188;-34
2021/10/07 04:34:07;;;;;;;10.38;7.03;;;;;;;30.89;69.24;100374.94;5065780;27;70376;-33
2021/10/07 04:36:41;;;;;;;7.93;7.15;;;;;;;30.98;69.96;100368.16;5084941;27;65386;-34
2021/10/07 04:39:16;;;;;;;8.32;6.90;;;;;;;30.99;69.79;100372.50;5090658;27;70018;-34
2021/10/07 04:41:51;;;;;;;8.15;6.70;;;;;;;31.01;70.45;100362.28;5087135;27;66277;-34
2021/10/07 04:44:22;;;;;;;7.78;7.05;;;;;;;31.02;70.35;100347.66;5090209;27;69593;-34
2021/10/07 04:46:52;;;;;;;6.97;6.53;;;;;;;31.08;69.90;100364.84;5086988;27;65862;-35
2021/10/07 04:49:26;;;;;;;7.90;7.30;;;;;;;31.10;69.78;100368.97;5090102;27;70359;-37
2021/10/07 04:51:58;;;;;;;6.88;6.35;;;;;;;31.12;69.80;100357.91;5090704;27;66234;-34
2021/10/07 04:54:32;;;;;;;5.80;5.50;;;;;;;31.15;69.28;100350.16;5088921;27;69297;-33
2021/10/07 04:57:04;;;;;;;;;;;;;;;30.89;69.21;100348.69;5089560;27;65516;-38
2021/10/07 04:59:38;;;;;;;10.18;7.35;;;;;;;31.15;69.88;100336.59;5087477;27;70397;-33
2021/10/07 05:02:09;;;;;;;9.75;6.60;;;;;;;31.23;70.21;100340.00;5071990;27;66658;-33
2021/10/07 05:04:41;;;;;;;9.57;6.70;;;;;;;31.26;70.24;100325.97;5088907;27;70067;-33
2021/10/07 05:07:12;;;;;;;8.13;6.85;;;;;;;31.24;70.38;100326.22;5085319;27;65494;-39
2021/10/07 05:09:43;;;;;;;10.05;6.63;;;;;;;31.20;70.14;100311.50;5084749;27;70671;-38
2021/10/07 05:12:16;;;;;;;11.60;6.63;;;;;;;31.32;69.97;100319.63;5088445;27;65571;-38
2021/10/07 05:14:50;;;;;;;6.50;5.80;;;;;;;31.33;70.13;100318.56;5087886;27;69867;-38
2021/10/07 05:17:23;;;;;;;7.22;6.55;;;;;;;31.34;70.36;100312.91;5092812;27;66174;-37
2021/10/07 05:19:54;;;;;;;6.38;5.88;;;;;;;31.33;70.46;100296.88;5087340;27;71022;-37
2021/10/07 05:22:25;;;;;;;6.82;6.20;;;;;;;31.35;70.59;100308.31;5086476;27;66124;-39
2021/10/07 05:24:56;;;;;;;6.35;5.80;;;;;;;31.35;70.37;100313.75;5091840;27;70729;-37
2021/10/07 05:27:29;;;;;;;8.10;6.63;;;;;;;31.32;70.21;100303.38;5092168;27;65404;-36
2021/10/07 05:30:04;;;;;;;7.20;6.03;;;;;;;31.31;70.84;100291.69;5086124;27;70400;-36
2021/10/07 05:32:38;;;;;;;6.32;5.93;;;;;;;31.37;70.89;100289.94;5084353;27;65826;-36
2021/10/07 05:35:09;;;;;;;6.80;6.30;;;;;;;31.38;70.52;100280.78;5086338;27;70123;-39
2021/10/07 05:37:40;;;;;;;7.10;6.50;;;;;;;31.38;71.02;100269.94;5090799;27;65229;-36
2021/10/07 05:40:16;;;;;;;6.65;6.25;;;;;;;31.41;70.97;100271.34;5090055;27;69196;-37
2021/10/07 05:42:53;;;;;;;9.40;6.15;;;;;;;31.42;70.91;100268.38;5094081;27;66317;-36
2021/10/07 05:45:27;;;;;;;6.97;6.47;;;;;;;31.45;70.97;100267.06;5086844;27;70709;-36
2021/10/07 05:47:58;;;;;;;8.55;6.50;;;;;;;31.45;71.14;100259.75;5088131;27;65447;-36
2021/10/07 05:50:31;;;;;;;7.47;6.78;;;;;;;31.50;71.44;100250.94;5085885;27;69677;-36
2021/10/07 05:53:02;;;;;;;6.55;6.05;;;;;;;31.50;71.17;100240.91;5091743;27;66043;-36
2021/10/07 05:55:37;;;;;;;7.40;6.38;;;;;;;31.52;71.52;100230.66;5089343;27;70563;-36
2021/10/07 05:58:11;;;;;;;10.23;7.00;;;;;;;31.52;71.36;100225.22;5091540;27;65519;-36
2021/10/07 06:00:42;;;;;;;6.97;6.07;;;;;;;31.56;71.08;100223.66;5083610;27;70641;-37
2021/10/07 06:03:14;;;;;;;6.43;6.03;;;;;;;31.58;71.42;100218.03;5086795;27;66234;-37
2021/10/07 06:05:46;;;;;;;9.15;5.80;;;;;;;31.60;71.38;100214.00;5072013;27;69821;-37
2021/10/07 06:08:17;;;;;;;7.53;6.43;;;;;;;31.61;71.57;100199.38;5090274;27;65442;-38
2021/10/07 06:10:52;;;;;;;7.68;5.70;;;;;;;31.63;71.35;100191.00;5083858;27;69023;-37
2021/10/07 06:13:36;;;;;;;7.22;5.85;;;;;;;31.58;71.38;100189.00;5084530;27;65139;-37
2021/10/07 06:16:11;;;;;;;6.00;5.60;;;;;;;31.70;71.56;100197.09;5089482;27;70280;-37
2021/10/07 06:18:50;;;;;;;6.88;5.60;;;;;;;31.71;71.65;100193.34;5085133;27;65621;-37
2021/10/07 06:21:25;;;;;;;5.60;5.20;;;;;;;31.74;71.23;100197.47;5072388;27;70155;-37
2021/10/07 06:24:02;;;;;;;5.68;4.95;;;;;;;31.77;71.25;100202.38;5086146;27;66259;-36
2021/10/07 06:26:43;;;;;;;;;;;;;;;31.48;71.68;100194.25;5091048;27;70205;-36
2021/10/07 06:29:18;;;;;;;4.68;4.32;;;;;;;31.77;70.98;100188.84;5070872;27;66892;-36
2021/10/07 06:32:00;;;;;;;5.20;4.90;;;;;;;31.80;70.83;100188.34;5089485;27;70538;-37
2021/10/07 06:34:36;;;;;;;4.82;4.53;;;;;;;31.78;70.51;100176.91;5092889;27;65516;-37
2021/10/07 06:37:11;;;;;;;4.45;4.05;;;;;;;31.86;70.68;100184.66;5072057;27;69952;-37
2021/10/07 06:39:48;;;;;;;5.10;4.45;;;;;;;31.87;70.21;100180.88;5089945;27;66742;-37
2021/10/07 06:42:19;;;;;;;4.97;4.40;;;;;;;31.90;69.99;100176.84;5073079;27;70122;-39
2021/10/07 06:44:53;;;;;;;4.55;4.13;;;;;;;31.93;70.39;100179.09;5091532;27;66344;-38
2021/10/07 06:47:28;;;;;;;4.80;4.40;;;;;;;31.93;70.08;100171.81;5096496;27;70277;-38
2021/10/07 06:50:06;;;;;;;5.90;3.60;;;;;;;31.96;69.86;100163.19;5074683;27;66040;-37
2021/10/07 06:52:45;;;;;;;4.72;4.32;;;;;;;31.90;70.06;100147.84;5092441;27;70196;-37
2021/10/07 06:55:32;;;;;;;6.03;4.15;;;;;;;31.97;69.61;100161.28;5075888;27;68058;-37
2021/10/07 06:58:13;;;;;;;4.32;3.92;;;;;;;31.97;69.43;100147.72;5092201;27;69964;-37
2021/10/07 07:01:28;;;;;;;4.78;4.18;;;;;;;32.00;69.82;100148.03;5096626;27;65349;-36
2021/10/07 07:04:33;;;;;;;4.35;4.05;;;;;;;31.88;69.17;100131.00;5092724;27;69679;-37
2021/10/07 07:07:15;;;;;;;3.88;3.67;;;;;;;32.03;69.44;100130.44;5086515;27;66866;-37
2021/10/07 07:10:31;;;;;;;4.22;3.83;;;;;;;32.03;69.39;100125.84;5091556;27;70208;-37
2021/10/07 07:13:16;;;;;;;4.35;3.95;;;;;;;32.05;69.25;100118.28;5091082;27;66472;-37
2021/10/07 07:15:57;;;;;;;5.18;4.15;;;;;;;31.76;69.19;100070.56;5068257;27;70287;-37
2021/10/07 07:18:40;;;;;;;6.90;3.53;;;;;;;31.81;69.36;100071.47;5078029;27;65572;-37
2021/10/07 07:21:26;;;;;;;5.20;3.83;;;;;;;32.12;69.03;100111.88;5095787;27;69168;-36
2021/10/07 07:24:15;;;;;;;4.55;4.10;;;;;;;32.11;68.91;100100.19;5096192;27;66280;-38
2021/10/07 07:27:01;;;;;;;3.75;3.38;;;;;;;32.17;68.93;100103.81;5094898;27;69059;-37
2021/10/07 07:29:54;;;;;;;3.88;3.45;;;;;;;32.16;68.68;100092.16;5089004;27;66256;-37
2021/10/07 07:32:52;;;;;;;3.67;3.40;;;;;;;32.11;68.29;100093.97;5082760;27;70257;-37
2021/10/07 07:35:36;;;;;;;3.67;3.38;;;;;;;32.17;68.51;100082.94;5064679;27;67040;-37
2021/10/07 07:38:30;;;;;;;8.13;3.38;;;;;;;32.24;68.09;100082.78;5085934;27;69243;-37
2021/10/07 07:41:13;;;;;;;6.47;3.67;;;;;;;32.08;66.86;100051.03;5051489;27;65330;-41
2021/10/07 07:43:59;;;;;;;4.45;3.40;;;;;;;32.24;66.34;100071.91;5075716;27;68687;-37
2021/10/07 07:47:05;;;;;;;4.05;3.60;;;;;;;32.30;65.40;100075.53;5074127;27;66914;-38
2021/10/07 07:49:58;;;;;;;4.85;3.55;;;;;;;32.30;65.66;100070.91;5081171;27;70496;-38
2021/10/07 07:52:54;;;;;;;3.85;3.55;;;;;;;32.30;66.02;100060.06;5066094;27;66415;-38
2021/10/07 07:55:46;;;;;;;4.45;4.07;;;;;;;32.30;66.08;100054.63;5092093;27;70145;-38
2021/10/07 07:58:28;;;;;;;7.10;3.83;;;;;;;32.32;66.41;100055.22;5070233;27;66568;-38
2021/10/07 08:01:36;;;;;;;5.03;3.83;;;;;;;32.38;65.67;100051.50;5077887;27;70039;-38
2021/10/07 08:04:34;;;;;;;7.00;4.60;;;;;;;32.32;65.85;100033.50;5079949;27;65014;-37
2021/10/07 08:07:21;;;;;;;5.53;4.75;;;;;;;32.34;65.99;100027.81;5082504;27;70520;-38
2021/10/07 08:10:07;;;;;;;8.18;4.85;;;;;;;32.40;65.75;100033.06;5051439;27;65625;-38
2021/10/07 08:12:53;;;;;;;4.75;4.43;;;;;;;32.38;66.33;100032.50;5060224;27;70538;-36
2021/10/07 08:15:46;;;;;;;5.68;5.18;;;;;;;32.47;65.18;100032.91;5067548;27;66708;-39
2021/10/07 08:18:45;;;;;;;4.32;4.03;;;;;;;32.47;65.97;100033.72;5086721;27;70242;-38
2021/10/07 08:21:29;;;;;;;5.00;4.60;;;;;;;32.49;65.82;100039.72;5086950;27;65268;-38
2021/10/07 08:24:09;;;;;;;5.38;4.53;;;;;;;32.46;64.24;100042.94;5046393;27;69273;-38
2021/10/07 08:27:01;;;;;;;5.15;4.55;;;;;;;32.44;63.13;100039.63;5093050;27;66111;-38
2021/10/07 08:29:50;;;;;;;8.20;5.00;;;;;;;32.46;63.03;100042.94;5067367;27;69215;-38
2021/10/07 08:32:51;;;;;;;5.30;4.80;;;;;;;32.48;63.24;100056.25;5085992;27;65353;-39
2021/10/07 08:35:50;;;;;;;4.80;4.40;;;;;;;32.59;64.37;100068.06;5093928;27;70451;-38
2021/10/07 08:38:33;;;;;;;5.60;4.97;;;;;;;32.21;63.11;100008.09;5056274;27;66051;-38
2021/10/07 08:41:39;;;;;;;9.25;4.85;;;;;;;32.55;63.81;100072.38;5091798;27;70410;-38
2021/10/07 08:44:29;;;;;;;5.18;4.68;;;;;;;32.64;64.44;100070.88;5089719;27;66826;-38
2021/10/07 08:47:09;;;;;;;5.47;4.97;;;;;;;32.33;64.01;100016.13;5086917;27;69967;-37
2021/10/07 08:49:52;;;;;;;5.53;5.13;;;;;;;32.62;64.03;100078.44;5069762;27;66238;-38
2021/10/07 08:52:39;;;;;;;6.15;4.95;;;;;;;32.62;63.92;100071.09;5070620;27;69175;-37
2021/10/07 08:55:16;;;;;;;5.13;4.05;;;;;;;32.60;63.70;100065.13;5073236;27;65591;-37
2021/10/07 08:57:49;;;;;;;6.65;4.18;;;;;;;32.68;63.63;100067.41;5059441;27;68578;-37
2021/10/07 09:00:41;;;;;;;6.20;4.40;;;;;;;32.64;62.64;100070.88;5089505;27;66427;-37
2021/10/07 09:03:22;;;;;;;6.80;4.28;;;;;;;32.67;63.48;100073.88;5085765;27;69523;-37
2021/10/07 09:06:13;;;;;;;4.80;3.88;;;;;;;32.34;63.79;100034.03;5060039;27;65344;-38
2021/10/07 09:08:49;;;;;;;5.18;4.68;;;;;;;32.62;63.67;100073.00;5070917;27;69457;-37
2021/10/07 09:11:29;;;;;;;14.77;4.65;;;;;;;32.65;64.46;100072.50;5078256;27;65372;-37
2021/10/07 09:14:41;;;;;;;5.93;4.53;;;;;;;32.62;64.76;100081.13;5058477;27;70143;-37
2021/10/07 09:17:19;;;;;;;8.23;4.72;;;;;;;32.63;65.07;100080.91;5088321;27;66532;-37
2021/10/07 09:19:56;;;;;;;5.95;4.80;;;;;;;32.63;65.20;100096.38;5089216;27;70648;-37
2021/10/07 09:22:35;;;;;;;5.13;4.70;;;;;;;32.65;65.01;100088.78;5087837;27;66219;-36
2021/10/07 09:25:23;;;;;;;;;;;;;;;32.39;66.31;100104.69;5082051;27;70410;-36
2021/10/07 09:28:05;;;;;;;5.30;4.82;;;;;;;32.36;65.67;100050.91;5090704;27;65853;-36
2021/10/07 09:30:45;;;;;;;8.18;4.38;;;;;;;32.62;66.38;100092.81;5089286;27;70463;-36
2021/10/07 09:33:35;;;;;;;5.82;4.60;;;;;;;32.31;65.73;100055.44;5071126;27;65520;-36
2021/10/07 09:36:15;;;;;;;4.40;4.00;;;;;;;32.51;66.02;100110.03;5087366;27;69495;-37
2021/10/07 09:38:53;;;;;;;6.27;3.90;;;;;;;32.23;66.30;100091.97;5090419;27;65337;-36
2021/10/07 09:41:31;;;;;;;4.28;3.97;;;;;;;32.32;66.24;100114.06;5093385;27;69490;-36
2021/10/07 09:44:10;;;;;;;4.80;4.35;;;;;;;32.25;66.53;100122.41;5091092;27;65901;-36
2021/10/07 09:46:51;;;;;;;4.78;4.32;;;;;;;32.19;67.01;100117.97;5088958;27;69343;-36
2021/10/07 09:49:35;;;;;;;7.47;4.43;;;;;;;32.10;67.62;100117.56;5093778;27;65085;-37
2021/10/07 09:52:15;;;;;;;16.73;4.90;;;;;;;32.24;67.28;100131.63;5073911;27;70299;-38
2021/10/07 09:54:47;;;;;;;42.85;4.97;;;;;;;32.29;67.37;100123.56;5089640;27;66417;-36
2021/10/07 09:57:31;;;;;;;24.20;5.30;;;;;;;32.29;67.38;100110.00;5079768;27;70027;-37
2021/10/07 10:00:05;;;;;;;12.82;6.95;;;;;;;32.17;66.85;100074.78;5094938;27;66828;-37
2021/10/07 10:02:37;;;;;;;7.07;6.40;;;;;;;32.40;66.33;100119.94;5090319;27;70097;-36
2021/10/07 10:05:13;;;;;;;7.72;6.25;;;;;;;32.44;66.80;100117.53;5094800;27;65521;-37
2021/10/07 10:07:47;;;;;;;14.02;6.70;;;;;;;32.45;66.63;100117.25;5085750;27;70417;-36
2021/10/07 10:10:18;;;;;;;10.23;6.30;;;;;;;32.51;66.92;100122.81;5092020;27;66078;-36
2021/10/07 10:12:49;;;;;;;36.35;6.97;;;;;;;32.41;66.92;100099.84;5097157;27;70144;-35
2021/10/07 10:15:21;;;;;;;6.35;5.78;;;;;;;32.51;67.55;100117.38;5091513;27;66501;-36
2021/10/07 10:17:52;;;;;;;8.77;6.57;;;;;;;32.42;67.65;100112.34;5093185;27;69905;-36
2021/10/07 10:20:31;;;;;;;11.90;7.35;;;;;;;32.29;68.08;100107.28;5092012;27;66474;-36
2021/10/07 10:23:09;;;;;;;10.38;7.88;;;;;;;31.87;67.64;100053.41;5092646;27;70495;-37
2021/10/07 10:26:04;;;;;;;8.88;8.07;;;;;;;32.11;67.47;100115.66;5088003;27;65635;-37
2021/10/07 10:28:45;;;;;;;11.30;10.18;;;;;;;32.10;67.43;100124.88;5087451;27;70154;-36
2021/10/07 10:31:28;;;;;;;13.10;8.80;;;;;;;32.07;68.39;100133.50;5092905;27;65253;-37
2021/10/07 10:34:10;;;;;;;13.13;9.30;;;;;;;32.01;68.46;100147.00;5086812;27;70539;-36
2021/10/07 10:37:00;;;;;;;11.80;9.05;;;;;;;31.99;69.09;100149.13;5086445;27;66480;-36
2021/10/07 10:39:37;;;;;;;15.38;9.18;;;;;;;31.95;69.22;100145.22;5081854;27;69644;-41
2021/10/07 10:42:17;;;;;;;9.02;8.43;;;;;;;31.91;69.01;100157.66;5083923;27;65662;-36
2021/10/07 10:44:57;;;;;;;14.77;8.73;;;;;;;31.91;69.49;100165.78;5085607;27;69524;-36
2021/10/07 10:47:30;;;;;;;11.13;9.07;;;;;;;31.60;69.62;100127.25;5084571;27;66766;-36
2021/10/07 10:50:02;;;;;;;9.30;8.25;;;;;;;31.80;69.89;100153.91;5088471;27;69582;-36
2021/10/07 10:52:53;;;;;;;10.35;9.45;;;;;;;31.52;69.83;100114.09;5091791;27;65684;-36
2021/10/07 10:55:31;;;;;;;8.40;7.80;;;;;;;31.85;70.04;100182.19;5092371;27;70553;-36
2021/10/07 10:58:06;;;;;;;8.52;7.85;;;;;;;31.83;70.05;100196.81;5089838;27;65429;-36
2021/10/07 11:00:45;;;;;;;8.90;8.10;;;;;;;31.82;70.23;100206.03;5088462;27;69669;-36
2021/10/07 11:03:26;;;;;;;9.25;8.50;;;;;;;31.75;70.52;100199.09;5091093;27;66348;-37
2021/10/07 11:06:06;;;;;;;8.47;7.87;;;;;;;31.54;70.44;100174.31;5077534;27;69275;-36
2021/10/07 11:08:45;;;;;;;9.50;8.65;;;;;;;31.77;70.19;100215.94;5101689;27;66080;-37
2021/10/07 11:11:35;;;;;;;8.45;7.85;;;;;;;31.70;70.17;100234.25;5085132;27;70681;-36
2021/10/07 11:14:09;;;;;;;9.35;8.02;;;;;;;31.76;70.10;100241.41;5035965;27;65691;-37
2021/10/07 11:16:49;;;;;;;8.32;7.82;;;;;;;31.73;70.48;100267.13;5081499;27;69362;-36
2021/10/07 11:19:21;;;;;;;9.50;8.80;;;;;;;31.74;70.14;100304.03;5086223;27;66549;-38
2021/10/07 11:22:10;;;;;;;8.80;8.13;;;;;;;31.67;70.41;100311.47;5094043;27;69669;-36
2021/10/07 11:24:55;;;;;;;9.63;8.77;;;;;;;31.67;70.52;100316.06;5090544;27;67227;-37
2021/10/07 11:27:36;;;;;;;8.40;7.90;;;;;;;31.67;70.46;100332.34;5085078;27;70075;-36
2021/10/07 11:30:14;;;;;;;7.88;7.35;;;;;;;31.44;70.40;100306.09;5085227;27;66179;-38
2021/10/07 11:32:54;;;;;;;7.95;7.45;;;;;;;31.53;71.06;100335.28;5085078;27;69243;-37
2021/10/07 11:35:25;;;;;;;6.40;5.90;;;;;;;31.59;71.38;100341.66;5085516;27;66437;-37
2021/10/07 11:38:12;;;;;;;6.45;5.90;;;;;;;31.60;71.05;100352.28;5070177;27;70238;-37
2021/10/07 11:40:54;;;;;;;6.47;6.05;;;;;;;31.60;70.99;100338.72;5086721;27;66447;-37
2021/10/07 11:43:34;;;;;;;6.13;5.63;;;;;;;31.27;70.77;100297.84;5086585;27;70374;-37
2021/10/07 11:46:13;;;;;;;6.68;5.32;;;;;;;31.53;70.77;100356.97;5089186;27;66305;-37
2021/10/07 11:48:50;;;;;;;5.00;4.70;;;;;;;31.24;70.69;100318.09;5088787;27;69645;-37
2021/10/07 11:51:30;;;;;;;5.15;4.65;;;;;;;31.25;71.27;100318.91;5083873;27;65670;-36
2021/10/07 11:54:05;;;;;;;4.85;4.45;;;;;;;31.42;71.51;100338.84;5087263;27;69385;-37
2021/10/07 11:56:42;;;;;;;5.55;5.05;;;;;;;31.43;71.20;100358.66;5070876;27;67854;-37
2021/10/07 11:59:20;;;;;;;4.93;4.53;;;;;;;31.11;71.67;100302.91;5071418;27;69539;-37
2021/10/07 12:02:18;;;;;;;3.80;3.50;;;;;;;31.33;71.97;100360.03;5085185;27;66227;-37
2021/10/07 12:05:32;;;;;;;5.05;4.65;;;;;;;31.21;71.04;100367.34;5091453;27;68286;-38
2021/10/07 12:08:19;;;;;;;4.13;3.83;;;;;;;30.89;71.78;100309.94;5076075;27;66322;-37
2021/10/07 12:11:21;;;;;;;4.03;3.72;;;;;;;30.87;72.07;100328.31;5088815;27;70100;-37
2021/10/07 12:14:18;;;;;;;3.80;3.30;;;;;;;31.15;71.92;100369.13;5083029;27;65686;-37
2021/10/07 12:17:10;;;;;;;4.03;3.72;;;;;;;31.15;72.34;100379.94;5090508;27;70545;-36
2021/10/07 12:19:47;;;;;;;7.45;3.80;;;;;;;31.13;71.86;100376.63;5092584;27;66318;-37
2021/10/07 12:22:30;;;;;;;4.22;3.90;;;;;;;31.10;72.04;100379.81;5096200;27;69561;-36
2021/10/07 12:25:22;;;;;;;3.80;3.60;;;;;;;30.78;72.10;100345.94;5090878;27;65571;-37
2021/10/07 12:28:20;;;;;;;3.95;3.65;;;;;;;31.07;72.14;100409.28;5090133;27;69334;-37
2021/10/07 12:31:03;;;;;;;4.15;3.75;;;;;;;31.01;72.62;100391.22;5102427;27;64832;-36
2021/10/07 12:34:03;;;;;;;4.22;3.88;;;;;;;31.03;73.21;100408.06;5087590;27;70338;-37
2021/10/07 12:36:58;;;;;;;15.65;4.07;;;;;;;31.05;73.58;100404.06;5085636;27;66441;-37
2021/10/07 12:39:48;;;;;;;11.40;3.60;;;;;;;31.06;73.94;100402.19;5088845;27;70225;-37
2021/10/07 12:42:52;;;;;;;10.00;3.78;;;;;;;30.97;74.54;100398.16;5084060;27;66833;-37
2021/10/07 12:46:05;;;;;;;5.85;3.88;;;;;;;30.98;74.66;100411.50;5084914;27;70224;-37
2021/10/07 12:49:15;;;;;;;6.50;3.83;;;;;;;31.08;74.86;100419.03;5081505;27;66441;-37
2021/10/07 12:52:10;;;;;;;5.45;3.85;;;;;;;31.08;75.29;100422.56;5085132;27;70919;-39
2021/10/07 12:55:04;;;;;;;7.78;3.90;;;;;;;31.03;75.46;100414.31;5083352;27;66145;-39
2021/10/07 12:58:16;;;;;;;;;;;;;;;30.84;76.17;100410.03;5082231;27;70053;-39